X-preSS Montecervino — 9HA3980 — position and weather

sailwx.info

Track history (hours):
 
Tides and Currents Weather Stations Pressure Air Temp Water Temp Dewpoint Dewpoint Depression Visibility Wind Speed Wind Dir Waves Ship Positions

X-preSS Montecervino

Last reported at 2017-Sep-22 00:08 UTC. Time now 2017-Sep-24 17:52 UTC.
Position N 37°43' W 000°22'.

Length 134 m; draft 6.5 m.

Type: Ship. MMSI: 256677000.

Date/timePositionNaut miles runAvg speedWind from/ knotsBaromVisibWave heightAir tempDewpointWater temp
2017-Sep-22 00:08N 37°43' W 000°22'212.7
2017-Sep-21 23:59N 37°42' W 000°23'612.7
2017-Sep-21 23:30N 37°37' W 000°28'612.7
2017-Sep-21 23:00N 37°32' W 000°33'612.7
2017-Sep-21 22:30N 37°27' W 000°39'812.7
2017-Sep-21 21:51N 37°22' W 000°47'512.5
2017-Sep-21 21:26N 37°18' W 000°52'1112.6
2017-Sep-21 20:35N 37°11' W 001°02'212.7
2017-Sep-21 20:26N 37°10' W 001°03'612.6
2017-Sep-21 19:59N 37°06' W 001°09'712.4
2017-Sep-21 19:26N 37°02' W 001°15'612.2
2017-Sep-21 18:57N 36°58' W 001°21'2112.3
2017-Sep-21 17:16N 36°44' W 001°40'413.4
2017-Sep-21 16:59N 36°41' W 001°43'1513.6
2017-Sep-21 15:53N 36°31' W 001°57'513.4
2017-Sep-21 15:30N 36°28' W 002°02'15613.4
2017-Sep-21 03:54N 36°01' W 005°12'614.7
2017-Sep-21 03:30N 36°01' W 005°19'713.1
2017-Sep-21 03:00N 36°06' W 005°24'2 1.6
2017-Sep-21 02:02N 36°08' W 005°25'0 0.6
2017-Sep-21 01:56N 36°08' W 005°25'0 0.0
2017-Sep-21 01:26N 36°08' W 005°25'0 0.0
2017-Sep-21 00:59N 36°08' W 005°25'0 0.1
2017-Sep-21 00:19N 36°08' W 005°25'0 0.1
2017-Sep-20 23:43N 36°08' W 005°25'0 0.0
2017-Sep-20 23:16N 36°08' W 005°25'0 0.0
2017-Sep-20 22:37N 36°08' W 005°25'0 0.0
2017-Sep-20 22:25N 36°08' W 005°25'0 0.0
2017-Sep-20 21:54N 36°08' W 005°25'0 0.0
2017-Sep-20 20:36N 36°08' W 005°25'0 0.0
2017-Sep-20 20:30N 36°08' W 005°25'0 0.0
2017-Sep-20 19:53N 36°08' W 005°25'4 0.3
2017-Sep-20 03:55N 36°04' W 005°23'4 9.1
2017-Sep-20 03:30N 36°00' W 005°22'714.0
2017-Sep-20 03:01N 35°57' W 005°30'8811.8
2017-Sep-19 19:32N 34°52' W 006°44'112.3
2017-Sep-19 19:29N 34°52' W 006°44'  
2017-Sep-17 02:17N 35°58' W 005°33'510.4
2017-Sep-17 01:50N 35°60' W 005°28'310.1
2017-Sep-17 01:30N 36°02' W 005°25'5 9.9
2017-Sep-17 00:59N 36°07' W 005°25'1 2.0
2017-Sep-17 00:30N 36°08' W 005°25'0 0.0
2017-Sep-16 23:49N 36°08' W 005°25'0 0.0
2017-Sep-16 23:29N 36°08' W 005°25'0 0.0
2017-Sep-16 23:00N 36°08' W 005°25'0 0.0
2017-Sep-16 22:30N 36°08' W 005°25'0 0.0
2017-Sep-16 21:59N 36°08' W 005°25'0 0.0
2017-Sep-16 21:30N 36°08' W 005°25'0 0.0
2017-Sep-16 21:00N 36°08' W 005°25'0 0.1
2017-Sep-16 20:30N 36°08' W 005°25'0 0.1
2017-Sep-16 19:52N 36°08' W 005°25'0 0.0
2017-Sep-16 19:28N 36°08' W 005°25'0 0.0
2017-Sep-16 19:00N 36°08' W 005°25'0 0.1
2017-Sep-16 18:29N 36°08' W 005°25'0 0.1
2017-Sep-16 18:00N 36°08' W 005°25'0 0.0
2017-Sep-16 17:14N 36°08' W 005°25'6 0.3
2017-Sep-15 21:09N 36°03' W 005°21'110.1
2017-Sep-15 21:00N 36°03' W 005°19'510.8
2017-Sep-15 20:30N 36°04' W 005°13'21310.9
2017-Sep-15 01:03N 37°14' W 001°03'112.6
2017-Sep-15 01:00N 37°15' W 001°02'912.5
2017-Sep-15 00:17N 37°20' W 000°53'412.4
2017-Sep-14 23:56N 37°23' W 000°49'512.4
2017-Sep-14 23:30N 37°27' W 000°44'712.2
2017-Sep-14 22:57N 37°31' W 000°38'512.1
2017-Sep-14 22:30N 37°35' W 000°33'1212.5
2017-Sep-14 21:32N 37°45' W 000°25'112.7
2017-Sep-14 21:28N 37°46' W 000°24'812.5
2017-Sep-14 20:51N 37°52' W 000°19'412.3
2017-Sep-14 20:30N 37°56' W 000°16'612.2
2017-Sep-14 20:00N 38°01' W 000°11'612.1
2017-Sep-14 19:30N 38°06' W 000°07'612.4
2017-Sep-14 19:00N 38°11' W 000°03'612.6
2017-Sep-14 18:30N 38°17' E 000°01'612.7
2017-Sep-14 18:00N 38°22' E 000°06'2312.2
2017-Sep-14 16:06N 38°42' E 000°22'511.9
2017-Sep-14 15:41N 38°46' E 000°25'212.0
2017-Sep-14 15:30N 38°48' E 000°26'1511.8
2017-Sep-14 14:12N 39°01' E 000°36'211.7
2017-Sep-14 14:00N 39°03' E 000°37'611.7
2017-Sep-14 13:27N 39°09' E 000°41'4912.7
2017-Sep-14 09:36N 39°52' E 001°10'112.7
2017-Sep-14 09:29N 39°53' E 001°11'613.3
2017-Sep-14 09:00N 39°59' E 001°15'713.4
2017-Sep-14 08:30N 40°05' E 001°20'612.2
2017-Sep-14 08:00N 40°10' E 001°24'611.1
2017-Sep-14 07:30N 40°15' E 001°27'611.2
2017-Sep-14 07:00N 40°20' E 001°30'510.7
2017-Sep-14 06:30N 40°25' E 001°33'510.8
2017-Sep-14 06:00N 40°30' E 001°37'611.1
2017-Sep-14 05:30N 40°34' E 001°41'611.2
2017-Sep-14 05:00N 40°39' E 001°44'611.1
2017-Sep-14 04:29N 40°44' E 001°48'511.3
2017-Sep-14 04:00N 40°49' E 001°51'1010.9
2017-Sep-14 03:04N 40°58' E 001°57'310.8
2017-Sep-14 02:49N 41°01' E 001°59'410.8
2017-Sep-14 02:30N 41°04' E 002°01'610.9
2017-Sep-14 01:59N 41°09' E 002°05'5 9.4
2017-Sep-14 01:28N 41°13' E 002°08'3 0.2
2017-Sep-13 08:51N 41°11' E 002°05'4 9.4
2017-Sep-13 08:25N 41°08' E 002°01'4 9.5
2017-Sep-13 08:00N 41°05' E 001°58'812.2
2017-Sep-13 07:21N 40°59' E 001°51'811.4
2017-Sep-13 06:39N 40°53' E 001°44'1 9.7
2017-Sep-13 06:30N 40°52' E 001°43'5 9.7
2017-Sep-13 05:59N 40°48' E 001°39'5 9.8
2017-Sep-13 05:30N 40°44' E 001°35'5 9.9
2017-Sep-13 05:00N 40°41' E 001°30'510.1
2017-Sep-13 04:29N 40°37' E 001°25'5 9.9
2017-Sep-13 03:57N 40°33' E 001°20'5 9.9
2017-Sep-13 03:29N 40°30' E 001°16'5 9.9
2017-Sep-13 02:58N 40°27' E 001°11'510.1
2017-Sep-13 02:30N 40°24' E 001°06'610.3
2017-Sep-13 01:57N 40°20' E 001°01'  
Track history (hours):
 
Tides and Currents Weather Stations Pressure Air Temp Water Temp Dewpoint Dewpoint Depression Visibility Wind Speed Wind Dir Waves Ship Positions

X-preSS Montecervino

Last reported at 2017-Sep-22 00:08 UTC. Time now 2017-Sep-24 17:52 UTC.
Position N 37°43' W 000°22'.

Length 134 m; draft 6.5 m.

Type: Ship. MMSI: 256677000.

Date/timePositionNaut miles runAvg speedWind from/ knotsBaromVisibWave heightAir tempDewpointWater temp
2017-Sep-22 00:08N 37°43' W 000°22'212.7
2017-Sep-21 23:59N 37°42' W 000°23'612.7
2017-Sep-21 23:30N 37°37' W 000°28'612.7
2017-Sep-21 23:00N 37°32' W 000°33'612.7
2017-Sep-21 22:30N 37°27' W 000°39'812.7
2017-Sep-21 21:51N 37°22' W 000°47'512.5
2017-Sep-21 21:26N 37°18' W 000°52'1112.6
2017-Sep-21 20:35N 37°11' W 001°02'212.7
2017-Sep-21 20:26N 37°10' W 001°03'612.6
2017-Sep-21 19:59N 37°06' W 001°09'712.4
2017-Sep-21 19:26N 37°02' W 001°15'612.2
2017-Sep-21 18:57N 36°58' W 001°21'2112.3
2017-Sep-21 17:16N 36°44' W 001°40'413.4
2017-Sep-21 16:59N 36°41' W 001°43'1513.6
2017-Sep-21 15:53N 36°31' W 001°57'513.4
2017-Sep-21 15:30N 36°28' W 002°02'15613.4
2017-Sep-21 03:54N 36°01' W 005°12'614.7
2017-Sep-21 03:30N 36°01' W 005°19'713.1
2017-Sep-21 03:00N 36°06' W 005°24'2 1.6
2017-Sep-21 02:02N 36°08' W 005°25'0 0.6
2017-Sep-21 01:56N 36°08' W 005°25'0 0.0
2017-Sep-21 01:26N 36°08' W 005°25'0 0.0
2017-Sep-21 00:59N 36°08' W 005°25'0 0.1
2017-Sep-21 00:19N 36°08' W 005°25'0 0.1
2017-Sep-20 23:43N 36°08' W 005°25'0 0.0
2017-Sep-20 23:16N 36°08' W 005°25'0 0.0
2017-Sep-20 22:37N 36°08' W 005°25'0 0.0
2017-Sep-20 22:25N 36°08' W 005°25'0 0.0
2017-Sep-20 21:54N 36°08' W 005°25'0 0.0
2017-Sep-20 20:36N 36°08' W 005°25'0 0.0
2017-Sep-20 20:30N 36°08' W 005°25'0 0.0
2017-Sep-20 19:53N 36°08' W 005°25'4 0.3
2017-Sep-20 03:55N 36°04' W 005°23'4 9.1
2017-Sep-20 03:30N 36°00' W 005°22'714.0
2017-Sep-20 03:01N 35°57' W 005°30'8811.8
2017-Sep-19 19:32N 34°52' W 006°44'112.3
2017-Sep-19 19:29N 34°52' W 006°44'  
2017-Sep-17 02:17N 35°58' W 005°33'510.4
2017-Sep-17 01:50N 35°60' W 005°28'310.1
2017-Sep-17 01:30N 36°02' W 005°25'5 9.9
2017-Sep-17 00:59N 36°07' W 005°25'1 2.0
2017-Sep-17 00:30N 36°08' W 005°25'0 0.0
2017-Sep-16 23:49N 36°08' W 005°25'0 0.0
2017-Sep-16 23:29N 36°08' W 005°25'0 0.0
2017-Sep-16 23:00N 36°08' W 005°25'0 0.0
2017-Sep-16 22:30N 36°08' W 005°25'0 0.0
2017-Sep-16 21:59N 36°08' W 005°25'0 0.0
2017-Sep-16 21:30N 36°08' W 005°25'0 0.0
2017-Sep-16 21:00N 36°08' W 005°25'0 0.1
2017-Sep-16 20:30N 36°08' W 005°25'0 0.1
2017-Sep-16 19:52N 36°08' W 005°25'0 0.0
2017-Sep-16 19:28N 36°08' W 005°25'0 0.0
2017-Sep-16 19:00N 36°08' W 005°25'0 0.1
2017-Sep-16 18:29N 36°08' W 005°25'0 0.1
2017-Sep-16 18:00N 36°08' W 005°25'0 0.0
2017-Sep-16 17:14N 36°08' W 005°25'6 0.3
2017-Sep-15 21:09N 36°03' W 005°21'110.1
2017-Sep-15 21:00N 36°03' W 005°19'510.8
2017-Sep-15 20:30N 36°04' W 005°13'21310.9
2017-Sep-15 01:03N 37°14' W 001°03'112.6
2017-Sep-15 01:00N 37°15' W 001°02'912.5
2017-Sep-15 00:17N 37°20' W 000°53'412.4
2017-Sep-14 23:56N 37°23' W 000°49'512.4
2017-Sep-14 23:30N 37°27' W 000°44'712.2
2017-Sep-14 22:57N 37°31' W 000°38'512.1
2017-Sep-14 22:30N 37°35' W 000°33'1212.5
2017-Sep-14 21:32N 37°45' W 000°25'112.7
2017-Sep-14 21:28N 37°46' W 000°24'812.5
2017-Sep-14 20:51N 37°52' W 000°19'412.3
2017-Sep-14 20:30N 37°56' W 000°16'612.2
2017-Sep-14 20:00N 38°01' W 000°11'612.1
2017-Sep-14 19:30N 38°06' W 000°07'612.4
2017-Sep-14 19:00N 38°11' W 000°03'612.6
2017-Sep-14 18:30N 38°17' E 000°01'612.7
2017-Sep-14 18:00N 38°22' E 000°06'2312.2
2017-Sep-14 16:06N 38°42' E 000°22'511.9
2017-Sep-14 15:41N 38°46' E 000°25'212.0
2017-Sep-14 15:30N 38°48' E 000°26'1511.8
2017-Sep-14 14:12N 39°01' E 000°36'211.7
2017-Sep-14 14:00N 39°03' E 000°37'611.7
2017-Sep-14 13:27N 39°09' E 000°41'4912.7
2017-Sep-14 09:36N 39°52' E 001°10'112.7
2017-Sep-14 09:29N 39°53' E 001°11'613.3
2017-Sep-14 09:00N 39°59' E 001°15'713.4
2017-Sep-14 08:30N 40°05' E 001°20'612.2
2017-Sep-14 08:00N 40°10' E 001°24'611.1
2017-Sep-14 07:30N 40°15' E 001°27'611.2
2017-Sep-14 07:00N 40°20' E 001°30'510.7
2017-Sep-14 06:30N 40°25' E 001°33'510.8
2017-Sep-14 06:00N 40°30' E 001°37'611.1
2017-Sep-14 05:30N 40°34' E 001°41'611.2
2017-Sep-14 05:00N 40°39' E 001°44'611.1
2017-Sep-14 04:29N 40°44' E 001°48'511.3
2017-Sep-14 04:00N 40°49' E 001°51'1010.9
2017-Sep-14 03:04N 40°58' E 001°57'310.8
2017-Sep-14 02:49N 41°01' E 001°59'410.8
2017-Sep-14 02:30N 41°04' E 002°01'610.9
2017-Sep-14 01:59N 41°09' E 002°05'5 9.4
2017-Sep-14 01:28N 41°13' E 002°08'3 0.2
2017-Sep-13 08:51N 41°11' E 002°05'4 9.4
2017-Sep-13 08:25N 41°08' E 002°01'4 9.5
2017-Sep-13 08:00N 41°05' E 001°58'812.2
2017-Sep-13 07:21N 40°59' E 001°51'811.4
2017-Sep-13 06:39N 40°53' E 001°44'1 9.7
2017-Sep-13 06:30N 40°52' E 001°43'5 9.7
2017-Sep-13 05:59N 40°48' E 001°39'5 9.8
2017-Sep-13 05:30N 40°44' E 001°35'5 9.9
2017-Sep-13 05:00N 40°41' E 001°30'510.1
2017-Sep-13 04:29N 40°37' E 001°25'5 9.9
2017-Sep-13 03:57N 40°33' E 001°20'5 9.9
2017-Sep-13 03:29N 40°30' E 001°16'5 9.9
2017-Sep-13 02:58N 40°27' E 001°11'510.1
2017-Sep-13 02:30N 40°24' E 001°06'610.3
2017-Sep-13 01:57N 40°20' E 001°01'  

Dump ship's entire track history